Huvudsida
METAR-TAF:

METAR-TAF

Flygplatser :

Jekaterinburg, Ryssland

latitud: 56-50N, longitud: 060-38E, höjd: 237 m

Aktuellt väderrapport

Denna rapport gjordes för 11 minuter sedan, klockan 06:00 UTC
Vind 12 kt från nord, varierande mellan nord/nordväst och nordost
Temperatur 21°C
Fuktighet 46%
Tryck 1020 hPa
Sikt 10 km eller mer
Inga moln under 1 500 m eller inga cumulonimbus

METAR: USSS 230600Z 01006MPS 330V050 CAVOK 21/09 Q1020 R26L/010060 R26R/010060 NOSIG RMK QFE744/0993

Tid: 11:11 (06:11 UTC)

Väderprognos

Denna rapport gjordes för 1 timme och 12 minuter sedan, klockan 04:59 UTC
Prognos gäller från 23 kl. 06 UTC till 24 kl. 06 UTC
Vind 6 kt från nord/nordväst i byarna ända upp till 17 kt
Sikt 10 km eller mer
Inga moln under 1 500 m eller inga cumulonimbus
Temporärt
från 23 kl. 06 UTC till 23 kl. 15 UTC
Vind 10 kt från nord i byarna ända upp till 23 kt

TAF: USSS 230459Z 2306/2406 34003G09MPS CAVOK TEMPO 2306/2315 36005G12MPS

Aktuella väderrapporter och prognoser från 4000 flygplatser (METAR- och TAF-rapporter).

De tillgängliga stationerna syns som gula och röda prickar på kartan.

För musen över prickarna för att se namnen på stationerna.

Klicka sedan för att få väderrapporter och prognoser.

För att ändra kartan: Klicka på de gröna knapparna med ett svart kors på för att zooma in; den gröna knappen med ett streck på för att zooma ut; eller på de gröna pilarna för angränsande kartor.


METAR-TAF: